createdAt,value
2023-04-29T00:00:40.943Z,17.00
2023-04-29T00:01:41.879Z,16.70
2023-04-29T00:02:40.937Z,16.90
2023-04-29T00:03:41.021Z,16.80
2023-04-29T00:04:40.967Z,16.80
2023-04-29T00:05:40.906Z,17.00
2023-04-29T00:06:40.836Z,17.50
2023-04-29T00:07:40.819Z,17.20
2023-04-29T00:08:42.402Z,16.70
2023-04-29T00:09:41.822Z,17.30
2023-04-29T00:10:40.828Z,17.20
2023-04-29T00:11:40.829Z,15.90
2023-04-29T00:12:40.984Z,17.20
2023-04-29T00:13:40.872Z,17.80
2023-04-29T00:14:40.768Z,17.20
2023-04-29T00:15:40.804Z,17.00
2023-04-29T00:16:40.798Z,16.90
2023-04-29T00:17:40.796Z,15.90
2023-04-29T00:18:40.742Z,15.80
2023-04-29T00:19:40.739Z,15.60
2023-04-29T00:20:40.743Z,16.40
2023-04-29T00:21:40.758Z,17.10
2023-04-29T00:22:40.844Z,18.50
2023-04-29T00:23:40.699Z,17.80
2023-04-29T00:24:40.731Z,17.50
2023-04-29T00:25:40.686Z,17.10
2023-04-29T00:26:40.678Z,17.50
2023-04-29T00:27:40.683Z,17.60
2023-04-29T00:28:40.684Z,18.10
2023-04-29T00:29:40.677Z,17.60
2023-04-29T00:30:40.679Z,20.10
2023-04-29T00:31:40.662Z,17.50
2023-04-29T00:32:40.709Z,17.20
2023-04-29T00:33:40.631Z,18.40
2023-04-29T00:34:40.642Z,17.90
2023-04-29T00:35:41.407Z,16.50
2023-04-29T00:36:40.647Z,17.60
2023-04-29T00:37:41.414Z,16.70
2023-04-29T00:38:40.591Z,16.50
2023-04-29T00:39:40.587Z,18.80
2023-04-29T00:40:41.414Z,18.50
2023-04-29T00:41:40.629Z,18.00
2023-04-29T00:42:40.602Z,17.40
2023-04-29T00:43:40.574Z,17.60
2023-04-29T00:44:40.556Z,17.20
2023-04-29T00:45:40.610Z,19.00
2023-04-29T00:46:40.615Z,19.80
2023-04-29T00:47:40.616Z,23.10
2023-04-29T00:48:40.527Z,21.20
2023-04-29T00:49:40.542Z,22.00
2023-04-29T00:50:40.542Z,19.80
2023-04-29T00:51:40.495Z,20.50
2023-04-29T00:52:40.540Z,21.20
2023-04-29T00:53:40.486Z,22.40
2023-04-29T00:54:41.395Z,22.20
2023-04-29T00:55:40.473Z,20.00
2023-04-29T00:56:40.510Z,18.30
2023-04-29T00:57:40.504Z,17.60
2023-04-29T00:58:40.453Z,17.70
2023-04-29T00:59:40.455Z,16.00
2023-04-29T01:00:40.452Z,18.50
2023-04-29T01:01:40.486Z,18.00
2023-04-29T01:02:40.464Z,19.30
2023-04-29T01:03:40.547Z,19.60
2023-04-29T01:04:40.445Z,20.10
2023-04-29T01:05:40.405Z,20.30
2023-04-29T01:06:40.392Z,17.90
2023-04-29T01:07:40.379Z,19.70
2023-04-29T01:08:40.371Z,19.90
2023-04-29T01:09:40.428Z,19.10
2023-04-29T01:10:40.396Z,20.10
2023-04-29T01:11:40.374Z,20.40
2023-04-29T01:12:40.370Z,20.60
2023-04-29T01:13:40.355Z,18.40
2023-04-29T01:14:40.352Z,19.40
2023-04-29T01:15:40.398Z,19.50
2023-04-29T01:16:40.356Z,20.60
2023-04-29T01:17:40.494Z,20.50
2023-04-29T01:18:40.313Z,19.80
2023-04-29T01:19:40.310Z,20.00
2023-04-29T01:20:40.448Z,19.40
2023-04-29T01:21:40.923Z,19.00
2023-04-29T01:22:40.269Z,17.90
2023-04-29T01:23:40.258Z,17.30
2023-04-29T01:24:40.252Z,16.80
2023-04-29T01:25:40.265Z,16.80
2023-04-29T01:26:40.273Z,18.20
2023-04-29T01:27:40.266Z,17.40
2023-04-29T01:28:40.242Z,18.80
2023-04-29T01:29:40.219Z,18.00
2023-04-29T01:30:40.221Z,17.40
2023-04-29T01:31:40.611Z,17.70
2023-04-29T01:32:40.357Z,17.50
2023-04-29T01:33:40.198Z,17.00
2023-04-29T01:34:40.183Z,16.50
2023-04-29T01:35:40.196Z,16.50
2023-04-29T01:36:40.185Z,14.10
2023-04-29T01:37:40.191Z,13.90
2023-04-29T01:38:40.157Z,13.70
2023-04-29T01:39:40.182Z,13.20
2023-04-29T01:40:40.159Z,12.90
2023-04-29T01:41:40.166Z,13.30
2023-04-29T01:42:40.127Z,13.20
2023-04-29T01:43:40.135Z,14.00
2023-04-29T01:44:40.119Z,13.20
2023-04-29T01:45:40.107Z,12.90
2023-04-29T01:46:40.197Z,11.60
2023-04-29T01:47:40.118Z,12.50
2023-04-29T01:48:40.095Z,12.80
2023-04-29T01:49:40.086Z,11.90
2023-04-29T01:50:40.913Z,12.40
2023-04-29T01:51:40.074Z,12.20
2023-04-29T01:52:40.107Z,12.30
2023-04-29T01:53:40.054Z,12.50
2023-04-29T01:54:40.049Z,13.00
2023-04-29T01:55:40.028Z,12.50
2023-04-29T01:56:40.015Z,12.40
2023-04-29T01:57:41.244Z,12.20
2023-04-29T01:58:40.137Z,12.40
2023-04-29T01:59:40.005Z,12.00
2023-04-29T02:00:40.093Z,11.30
2023-04-29T02:01:40.016Z,11.70
2023-04-29T02:02:40.133Z,12.30
2023-04-29T02:03:40.115Z,11.50
2023-04-29T02:04:40.043Z,13.80
2023-04-29T02:05:39.978Z,12.80
2023-04-29T02:06:39.962Z,13.80
2023-04-29T02:07:39.943Z,13.50
2023-04-29T02:08:39.978Z,14.80
2023-04-29T02:09:40.018Z,14.60
2023-04-29T02:10:39.955Z,16.40
2023-04-29T02:11:39.941Z,17.30
2023-04-29T02:12:39.901Z,17.70
2023-04-29T02:13:39.899Z,18.10
2023-04-29T02:14:39.905Z,16.00
2023-04-29T02:15:39.872Z,17.10
2023-04-29T02:16:39.890Z,15.80
2023-04-29T02:17:40.433Z,15.40
2023-04-29T02:18:39.892Z,16.10
2023-04-29T02:19:39.885Z,17.00
2023-04-29T02:20:39.870Z,16.70
2023-04-29T02:21:39.844Z,17.10
2023-04-29T02:22:40.423Z,16.80
2023-04-29T02:23:39.816Z,15.40
2023-04-29T02:24:39.856Z,15.30
2023-04-29T02:25:40.488Z,17.20
2023-04-29T02:26:39.793Z,17.60
2023-04-29T02:27:39.782Z,17.40
2023-04-29T02:28:39.790Z,17.30
2023-04-29T02:29:39.793Z,17.10
2023-04-29T02:30:39.801Z,17.50
2023-04-29T02:31:39.785Z,18.20
2023-04-29T02:32:39.815Z,18.00
2023-04-29T02:33:39.755Z,18.50
2023-04-29T02:34:39.722Z,17.10
2023-04-29T02:35:39.722Z,18.50
2023-04-29T02:36:39.752Z,18.40
2023-04-29T02:37:39.719Z,18.40
2023-04-29T02:38:39.703Z,18.70
2023-04-29T02:39:39.689Z,18.60
2023-04-29T02:40:39.689Z,19.00
2023-04-29T02:41:40.910Z,18.70
2023-04-29T02:42:39.684Z,19.10
2023-04-29T02:43:39.676Z,20.60
2023-04-29T02:44:39.710Z,21.20
2023-04-29T02:45:39.667Z,20.00
2023-04-29T02:46:39.673Z,19.60
2023-04-29T02:47:39.726Z,20.60
2023-04-29T02:48:39.613Z,19.00
2023-04-29T02:49:39.650Z,19.40
2023-04-29T02:50:39.592Z,19.90
2023-04-29T02:51:39.649Z,20.10
2023-04-29T02:52:39.644Z,19.00
2023-04-29T02:53:39.620Z,18.50
2023-04-29T02:54:39.592Z,19.00
2023-04-29T02:55:39.579Z,20.20
2023-04-29T02:56:39.609Z,19.70
2023-04-29T02:57:39.613Z,19.50
2023-04-29T02:58:39.569Z,20.00
2023-04-29T02:59:39.559Z,20.80
2023-04-29T03:00:39.575Z,21.30
2023-04-29T03:01:39.649Z,22.60
2023-04-29T03:02:39.615Z,21.50
2023-04-29T03:03:39.670Z,21.60
2023-04-29T03:04:39.529Z,22.30
2023-04-29T03:05:39.503Z,22.30
2023-04-29T03:06:39.499Z,21.20
2023-04-29T03:07:39.524Z,21.50
2023-04-29T03:08:39.480Z,22.00
2023-04-29T03:09:39.466Z,22.10
2023-04-29T03:10:41.463Z,21.00
2023-04-29T03:11:40.464Z,20.30
2023-04-29T03:12:39.599Z,20.80
2023-04-29T03:13:39.461Z,19.90
2023-04-29T03:14:39.438Z,19.70
2023-04-29T03:15:39.426Z,19.80
2023-04-29T03:16:39.457Z,20.00
2023-04-29T03:17:39.966Z,20.10
2023-04-29T03:18:39.442Z,19.70
2023-04-29T03:19:39.931Z,20.90
2023-04-29T03:20:39.397Z,20.80
2023-04-29T03:21:39.387Z,19.70
2023-04-29T03:22:39.364Z,17.80
2023-04-29T03:23:39.389Z,19.80
2023-04-29T03:24:39.352Z,19.20
2023-04-29T03:25:39.384Z,18.40
2023-04-29T03:26:39.341Z,19.10
2023-04-29T03:27:39.351Z,18.50
2023-04-29T03:28:39.366Z,18.70
2023-04-29T03:29:39.299Z,17.30
2023-04-29T03:30:39.334Z,17.50
2023-04-29T03:31:39.366Z,17.90
2023-04-29T03:32:39.343Z,18.20
2023-04-29T03:33:39.283Z,18.20
2023-04-29T03:34:39.286Z,19.00
2023-04-29T03:35:39.299Z,18.80
2023-04-29T03:36:39.245Z,19.00
2023-04-29T03:37:39.333Z,20.50
2023-04-29T03:38:39.253Z,20.10
2023-04-29T03:39:39.945Z,19.20
2023-04-29T03:40:39.319Z,19.50
2023-04-29T03:41:39.231Z,18.50
2023-04-29T03:42:39.261Z,19.70
2023-04-29T03:43:39.208Z,18.90
2023-04-29T03:44:39.200Z,18.70
2023-04-29T03:45:39.948Z,20.40
2023-04-29T03:46:39.211Z,20.80
2023-04-29T04:02:23.573Z,19.00
2023-04-29T04:03:23.485Z,21.80
2023-04-29T04:04:23.708Z,23.40
2023-04-29T04:05:24.543Z,24.60
2023-04-29T04:06:24.532Z,25.20
2023-04-29T04:07:24.518Z,24.10
2023-04-29T04:08:24.619Z,25.40
2023-04-29T04:09:24.504Z,24.60
2023-04-29T04:10:24.511Z,25.40
2023-04-29T04:11:24.498Z,25.50
2023-04-29T04:12:24.491Z,25.60
2023-04-29T04:13:24.518Z,24.40
2023-04-29T04:14:24.471Z,24.20
2023-04-29T04:15:24.456Z,24.60
2023-04-29T04:16:25.527Z,22.40
2023-04-29T04:17:25.197Z,22.90
2023-04-29T04:18:24.444Z,23.30
2023-04-29T04:19:24.503Z,23.30
2023-04-29T04:20:24.452Z,24.00
2023-04-29T04:21:24.446Z,23.50
2023-04-29T04:22:24.411Z,23.20
2023-04-29T04:23:24.427Z,24.30
2023-04-29T04:24:24.433Z,24.50
2023-04-29T04:25:24.400Z,23.20
2023-04-29T04:26:24.367Z,22.50
2023-04-29T04:27:24.395Z,22.40
2023-04-29T04:28:24.358Z,22.30
2023-04-29T04:29:24.426Z,23.00
2023-04-29T04:30:24.353Z,23.30
2023-04-29T04:31:24.362Z,22.60
2023-04-29T04:32:24.406Z,21.40
2023-04-29T04:33:24.321Z,22.60
2023-04-29T04:34:24.332Z,22.00
2023-04-29T04:35:24.325Z,22.50
2023-04-29T04:36:24.305Z,23.20
2023-04-29T04:37:24.322Z,22.00
2023-04-29T04:38:24.321Z,23.70
2023-04-29T04:39:24.283Z,23.90
2023-04-29T04:40:24.294Z,22.20
2023-04-29T04:41:24.283Z,23.30
2023-04-29T04:42:24.350Z,23.80
2023-04-29T04:43:24.275Z,23.30
2023-04-29T04:44:24.233Z,23.60
2023-04-29T04:45:24.322Z,22.70
2023-04-29T04:46:24.221Z,23.10
2023-04-29T04:47:24.304Z,24.50
2023-04-29T04:48:56.181Z,23.30
2023-04-29T04:49:24.214Z,23.90
2023-04-29T04:50:24.194Z,22.80
2023-04-29T04:51:24.190Z,23.30
2023-04-29T04:52:24.206Z,24.30
2023-04-29T04:53:24.160Z,24.50
2023-04-29T04:54:24.198Z,23.90
2023-04-29T04:55:24.168Z,23.20
2023-04-29T04:56:24.149Z,22.60
2023-04-29T04:57:24.145Z,21.50
2023-04-29T04:58:24.139Z,24.70
2023-04-29T04:59:24.129Z,22.00
2023-04-29T05:00:24.140Z,22.90
2023-04-29T05:01:24.142Z,23.50
2023-04-29T05:02:24.305Z,21.30
2023-04-29T05:03:24.265Z,23.50
2023-04-29T05:04:25.355Z,23.30
2023-04-29T05:05:24.105Z,22.60
2023-04-29T05:06:24.094Z,23.30
2023-04-29T05:07:24.066Z,23.00
2023-04-29T05:08:24.050Z,23.30
2023-04-29T05:09:24.077Z,23.30
2023-04-29T05:10:24.044Z,23.00
2023-04-29T05:11:24.034Z,22.70
2023-04-29T05:12:24.038Z,23.20
2023-04-29T05:13:24.010Z,23.40
2023-04-29T05:14:24.042Z,21.90
2023-04-29T05:15:24.008Z,22.00
2023-04-29T05:16:24.002Z,23.00
2023-04-29T05:17:24.027Z,23.40
2023-04-29T05:18:24.001Z,27.40
2023-04-29T05:19:23.966Z,24.30
2023-04-29T05:20:24.670Z,32.40
2023-04-29T05:21:23.966Z,31.40
2023-04-29T05:22:23.993Z,36.10
2023-04-29T05:23:23.943Z,37.90
2023-04-29T05:24:23.972Z,39.10
2023-04-29T05:25:23.950Z,36.10
2023-04-29T05:26:23.970Z,33.00
2023-04-29T05:27:23.893Z,28.70
2023-04-29T05:28:23.943Z,26.90
2023-04-29T05:29:23.906Z,24.90
2023-04-29T05:30:23.873Z,26.60
2023-04-29T05:31:23.973Z,24.90
2023-04-29T05:32:23.979Z,27.40
2023-04-29T05:33:23.859Z,25.20
2023-04-29T05:34:24.691Z,25.50
2023-04-29T05:35:23.862Z,23.90
2023-04-29T05:36:23.821Z,23.20
2023-04-29T05:37:23.862Z,23.80
2023-04-29T05:38:23.846Z,22.10
2023-04-29T05:39:23.818Z,23.20
2023-04-29T05:40:23.792Z,22.40
2023-04-29T05:41:23.790Z,22.10
2023-04-29T05:42:23.773Z,21.30
2023-04-29T05:43:23.824Z,23.50
2023-04-29T05:44:23.787Z,22.60
2023-04-29T05:45:23.767Z,21.90
2023-04-29T05:46:23.795Z,23.20
2023-04-29T05:47:23.779Z,23.40
2023-04-29T05:48:23.733Z,22.70
2023-04-29T05:49:23.741Z,23.00
2023-04-29T05:50:23.711Z,23.40
2023-04-29T05:51:23.766Z,23.80
2023-04-29T05:52:23.713Z,23.60
2023-04-29T05:53:24.745Z,23.80
2023-04-29T05:54:23.697Z,24.10
2023-04-29T05:55:23.689Z,23.20
2023-04-29T05:56:23.668Z,21.40
2023-04-29T05:57:23.695Z,22.10
2023-04-29T05:58:23.652Z,21.80
2023-04-29T05:59:23.651Z,22.40
2023-04-29T06:00:23.662Z,21.60
2023-04-29T06:01:23.629Z,21.70
2023-04-29T06:02:23.802Z,24.40
2023-04-29T06:03:23.895Z,23.60
2023-04-29T06:04:23.772Z,23.30
2023-04-29T06:05:23.988Z,22.90
2023-04-29T06:06:23.661Z,23.10
2023-04-29T06:07:23.602Z,23.80
2023-04-29T06:08:23.565Z,23.50
2023-04-29T06:09:27.615Z,22.90
2023-04-29T06:10:24.571Z,23.10
2023-04-29T06:11:23.556Z,23.40
2023-04-29T06:12:23.551Z,22.80
2023-04-29T06:13:23.549Z,22.10
2023-04-29T06:14:23.558Z,22.60
2023-04-29T06:15:23.546Z,21.30
2023-04-29T06:16:23.578Z,21.50
2023-04-29T06:17:23.531Z,21.50
2023-04-29T06:18:23.512Z,20.80
2023-04-29T06:19:23.503Z,20.50
2023-04-29T06:20:23.503Z,22.40
2023-04-29T06:21:23.506Z,20.90
2023-04-29T06:22:23.482Z,21.70
2023-04-29T06:23:23.470Z,21.20
2023-04-29T06:24:23.480Z,20.60
2023-04-29T06:25:23.452Z,20.90
2023-04-29T06:26:23.436Z,19.50
2023-04-29T06:27:23.436Z,19.00
2023-04-29T06:28:23.470Z,19.50
2023-04-29T06:29:23.458Z,18.50
2023-04-29T06:30:23.412Z,19.50
2023-04-29T06:31:23.466Z,20.40
2023-04-29T06:32:23.551Z,20.20
2023-04-29T06:33:23.387Z,21.10
2023-04-29T06:34:23.404Z,20.80
2023-04-29T06:35:23.396Z,22.40
2023-04-29T06:36:23.358Z,21.60
2023-04-29T06:37:23.355Z,21.40
2023-04-29T06:38:23.330Z,20.60
2023-04-29T06:39:23.380Z,19.90
2023-04-29T06:40:23.343Z,20.90
2023-04-29T06:41:23.321Z,18.20
2023-04-29T06:42:23.320Z,17.90
2023-04-29T06:43:23.747Z,17.10
2023-04-29T06:44:23.310Z,17.20
2023-04-29T06:45:23.764Z,17.50
2023-04-29T06:46:23.327Z,17.50
2023-04-29T06:47:23.268Z,9.80
2023-04-29T06:48:23.270Z,11.70
2023-04-29T06:49:24.227Z,11.60
2023-04-29T06:50:23.270Z,11.10
2023-04-29T06:51:23.238Z,8.10
2023-04-29T06:52:23.246Z,8.20
2023-04-29T06:53:23.206Z,9.20
2023-04-29T06:54:24.137Z,8.60
2023-04-29T06:55:23.238Z,8.20
2023-04-29T06:56:23.214Z,7.30
2023-04-29T06:57:23.186Z,6.20
2023-04-29T06:58:23.186Z,5.00
2023-04-29T06:59:23.244Z,5.10
2023-04-29T07:00:23.176Z,5.00
2023-04-29T07:01:23.213Z,4.90
2023-04-29T07:02:23.257Z,5.50
2023-04-29T07:03:23.312Z,4.90
2023-04-29T07:04:23.209Z,4.20
2023-04-29T07:05:23.131Z,4.30
2023-04-29T07:06:23.176Z,4.60
2023-04-29T07:07:23.105Z,4.30
2023-04-29T07:08:23.118Z,4.00
2023-04-29T07:09:23.111Z,4.40
2023-04-29T07:10:24.105Z,4.40
2023-04-29T07:11:23.134Z,5.10
2023-04-29T07:12:23.081Z,5.10
2023-04-29T07:13:23.073Z,5.50
2023-04-29T07:14:23.096Z,4.90
2023-04-29T07:15:23.106Z,5.10
2023-04-29T07:16:23.085Z,4.40
2023-04-29T07:17:23.080Z,3.90
2023-04-29T07:18:23.078Z,4.20
2023-04-29T07:19:23.077Z,4.40
2023-04-29T07:20:23.056Z,4.50
2023-04-29T07:21:23.044Z,4.00
2023-04-29T07:22:23.022Z,3.50
2023-04-29T07:23:23.004Z,4.20
2023-04-29T07:24:22.981Z,4.20
2023-04-29T07:25:22.993Z,4.30
2023-04-29T07:26:22.974Z,3.90
2023-04-29T07:27:22.997Z,4.00
2023-04-29T07:28:22.970Z,4.20
2023-04-29T07:29:22.936Z,4.00
2023-04-29T07:30:23.036Z,4.10
2023-04-29T07:31:23.088Z,4.10
2023-04-29T07:32:22.971Z,4.20
2023-04-29T07:33:22.939Z,4.20
2023-04-29T07:34:22.923Z,3.90
2023-04-29T07:35:22.905Z,3.90
2023-04-29T07:36:22.898Z,4.20
2023-04-29T07:37:22.888Z,4.00
2023-04-29T07:38:22.912Z,4.60
2023-04-29T07:39:22.894Z,4.20
2023-04-29T07:40:22.907Z,4.30
2023-04-29T07:41:22.872Z,4.50
2023-04-29T07:42:22.850Z,4.60
2023-04-29T07:43:22.894Z,4.60
2023-04-29T07:44:22.841Z,4.40
2023-04-29T07:45:22.835Z,4.40
2023-04-29T07:46:22.877Z,4.10
2023-04-29T07:47:22.817Z,4.30
2023-04-29T07:48:22.827Z,4.60
2023-04-29T07:49:22.818Z,4.20
2023-04-29T07:50:22.914Z,4.80
2023-04-29T07:51:22.760Z,4.60
2023-04-29T07:52:22.754Z,4.50
2023-04-29T07:53:22.763Z,4.60
2023-04-29T07:54:22.751Z,4.70
2023-04-29T07:55:22.761Z,5.00
2023-04-29T07:56:22.726Z,4.70
2023-04-29T07:57:22.723Z,4.90
2023-04-29T07:58:22.731Z,5.00
2023-04-29T07:59:22.722Z,5.00
2023-04-29T08:00:22.824Z,5.10
2023-04-29T08:01:22.741Z,5.70
2023-04-29T08:02:23.754Z,5.50
2023-04-29T08:03:22.975Z,6.00
2023-04-29T08:04:22.838Z,5.90
2023-04-29T08:05:22.940Z,5.70
2023-04-29T08:06:22.670Z,6.30
2023-04-29T08:07:22.666Z,5.60
2023-04-29T08:08:22.643Z,6.10
2023-04-29T08:09:22.632Z,5.50
2023-04-29T08:10:22.951Z,5.70
2023-04-29T08:11:22.643Z,6.10
2023-04-29T08:12:22.609Z,6.60
2023-04-29T08:13:22.609Z,6.00
2023-04-29T08:14:22.595Z,6.10
2023-04-29T08:15:22.927Z,6.80
2023-04-29T08:16:22.655Z,6.90
2023-04-29T08:17:22.620Z,6.50
2023-04-29T08:18:22.560Z,6.40
2023-04-29T08:19:22.550Z,6.30
2023-04-29T08:20:22.549Z,6.20
2023-04-29T08:21:22.564Z,6.30
2023-04-29T08:22:22.547Z,6.50
2023-04-29T08:23:22.505Z,7.00
2023-04-29T08:24:22.522Z,6.40
2023-04-29T08:25:22.502Z,6.80
2023-04-29T08:26:24.025Z,6.70
2023-04-29T08:27:22.541Z,7.00
2023-04-29T08:28:22.475Z,7.00
2023-04-29T08:29:22.481Z,6.90
2023-04-29T08:30:22.804Z,7.30
2023-04-29T08:31:22.542Z,6.80
2023-04-29T08:32:22.617Z,7.20
2023-04-29T08:33:22.443Z,7.10
2023-04-29T08:34:22.437Z,7.40
2023-04-29T08:35:22.452Z,8.10
2023-04-29T08:36:22.438Z,8.20
2023-04-29T08:37:22.468Z,8.20
2023-04-29T08:38:22.420Z,8.00
2023-04-29T08:39:22.449Z,7.80
2023-04-29T08:40:22.380Z,8.00
2023-04-29T08:41:22.790Z,8.10
2023-04-29T08:42:22.370Z,7.40
2023-04-29T08:43:22.394Z,7.10
2023-04-29T08:44:22.342Z,6.70
2023-04-29T08:45:22.371Z,7.60
2023-04-29T08:46:22.473Z,7.10
2023-04-29T08:47:22.414Z,7.40
2023-04-29T08:48:22.393Z,6.60
2023-04-29T08:49:22.316Z,7.00
2023-04-29T08:50:22.325Z,7.00
2023-04-29T08:51:22.325Z,7.40
2023-04-29T08:52:22.303Z,6.80
2023-04-29T08:53:22.307Z,7.20
2023-04-29T08:54:22.295Z,6.70
2023-04-29T08:55:22.256Z,7.00
2023-04-29T08:56:22.329Z,6.80
2023-04-29T08:57:22.274Z,6.30
2023-04-29T08:58:22.259Z,6.70
2023-04-29T08:59:22.238Z,6.10
2023-04-29T09:00:22.235Z,5.70
2023-04-29T09:01:22.363Z,5.20
2023-04-29T09:02:22.379Z,4.90
2023-04-29T09:03:22.334Z,5.10
2023-04-29T09:04:22.230Z,5.10
2023-04-29T09:05:22.175Z,5.10
2023-04-29T09:06:22.188Z,4.60
2023-04-29T09:07:22.207Z,4.90
2023-04-29T09:08:23.187Z,4.90
2023-04-29T09:09:22.169Z,4.80
2023-04-29T09:10:22.159Z,4.30
2023-04-29T09:11:22.151Z,4.50
2023-04-29T09:12:22.169Z,4.60
2023-04-29T09:13:22.152Z,4.90
2023-04-29T09:14:22.129Z,4.60
2023-04-29T09:15:22.192Z,4.60
2023-04-29T09:16:22.176Z,4.70
2023-04-29T09:17:22.135Z,4.70
2023-04-29T09:18:22.320Z,4.20
2023-04-29T09:19:22.147Z,4.90
2023-04-29T09:20:22.279Z,4.50
2023-04-29T09:21:23.019Z,4.40
2023-04-29T09:22:22.095Z,4.60
2023-04-29T09:23:22.112Z,4.60
2023-04-29T09:24:22.112Z,4.00
2023-04-29T09:25:22.093Z,4.50
2023-04-29T09:26:22.063Z,4.50
2023-04-29T09:27:22.094Z,4.60
2023-04-29T09:28:22.084Z,4.30
2023-04-29T09:29:22.727Z,4.20
2023-04-29T09:30:22.031Z,4.60
2023-04-29T09:31:22.038Z,4.30
2023-04-29T09:32:22.054Z,4.40
2023-04-29T09:33:21.983Z,4.50
2023-04-29T09:34:21.969Z,4.40
2023-04-29T09:35:22.036Z,4.60
2023-04-29T09:36:21.964Z,4.60
2023-04-29T09:37:22.001Z,4.70
2023-04-29T09:38:21.954Z,4.30
2023-04-29T09:39:21.927Z,4.60
2023-04-29T09:40:21.951Z,4.40
2023-04-29T09:41:21.934Z,4.40
2023-04-29T09:42:21.939Z,5.00
2023-04-29T09:43:21.905Z,4.80
2023-04-29T09:44:21.943Z,4.80
2023-04-29T09:45:22.075Z,5.10
2023-04-29T09:46:21.907Z,4.80
2023-04-29T09:47:21.918Z,4.70
2023-04-29T09:48:21.894Z,4.50
2023-04-29T09:49:21.877Z,4.80
2023-04-29T09:50:21.867Z,4.90
2023-04-29T09:51:21.898Z,4.80
2023-04-29T09:52:21.897Z,4.60
2023-04-29T09:53:21.869Z,4.80
2023-04-29T09:54:21.834Z,4.40
2023-04-29T09:55:21.862Z,4.50
2023-04-29T09:56:21.827Z,4.80
2023-04-29T09:57:21.852Z,5.00
2023-04-29T09:58:21.801Z,4.60
2023-04-29T09:59:21.827Z,4.70
2023-04-29T10:00:21.806Z,4.20
2023-04-29T10:01:21.815Z,4.40
2023-04-29T10:02:22.817Z,4.50
2023-04-29T10:03:21.865Z,4.90
2023-04-29T10:04:21.803Z,4.40
2023-04-29T10:05:21.782Z,4.80
2023-04-29T10:06:21.743Z,5.10
2023-04-29T10:07:21.779Z,4.80
2023-04-29T10:08:21.739Z,5.00
2023-04-29T10:09:21.816Z,4.70
2023-04-29T10:10:22.252Z,5.10
2023-04-29T10:11:22.289Z,4.70
2023-04-29T10:12:21.699Z,4.80
2023-04-29T10:13:21.681Z,5.10
2023-04-29T10:14:21.731Z,5.10
2023-04-29T10:15:21.661Z,5.20
2023-04-29T10:16:21.715Z,4.80
2023-04-29T10:17:21.657Z,4.30
2023-04-29T10:18:21.690Z,4.50
2023-04-29T10:19:21.686Z,5.20
2023-04-29T10:20:22.651Z,4.80
2023-04-29T10:21:21.616Z,5.00
2023-04-29T10:22:21.607Z,4.90
2023-04-29T10:23:21.601Z,4.90
2023-04-29T10:24:21.632Z,5.30
2023-04-29T10:25:21.697Z,5.00
2023-04-29T10:26:21.608Z,4.80
2023-04-29T10:27:22.225Z,4.90
2023-04-29T10:28:21.554Z,5.20
2023-04-29T10:29:21.569Z,5.10
2023-04-29T10:30:21.596Z,5.20
2023-04-29T10:31:21.615Z,4.90
2023-04-29T10:32:21.603Z,5.00
2023-04-29T10:33:21.557Z,4.90
2023-04-29T10:34:21.514Z,5.10
2023-04-29T10:35:21.551Z,4.80
2023-04-29T10:36:21.552Z,5.40
2023-04-29T10:37:21.505Z,5.20
2023-04-29T10:38:21.489Z,5.10
2023-04-29T10:39:21.500Z,5.10
2023-04-29T10:40:21.576Z,5.00
2023-04-29T10:41:21.473Z,5.50
2023-04-29T10:42:21.462Z,5.20
2023-04-29T10:43:21.470Z,5.90
2023-04-29T10:44:21.491Z,5.80
2023-04-29T10:45:21.738Z,5.60
2023-04-29T10:46:21.559Z,5.20
2023-04-29T10:47:21.599Z,5.90
2023-04-29T10:48:22.114Z,6.10
2023-04-29T10:49:22.490Z,7.40
2023-04-29T10:50:21.389Z,6.80
2023-04-29T10:51:53.337Z,5.80
2023-04-29T10:52:22.256Z,5.70
2023-04-29T10:53:21.378Z,5.60
2023-04-29T10:54:21.385Z,5.50
2023-04-29T10:55:21.353Z,5.30
2023-04-29T10:56:21.410Z,5.10
2023-04-29T10:57:21.349Z,5.10
2023-04-29T10:58:21.365Z,5.60
2023-04-29T10:59:21.324Z,5.60
2023-04-29T11:00:21.574Z,5.50
2023-04-29T11:01:21.409Z,5.70
2023-04-29T11:02:21.359Z,5.50
2023-04-29T11:03:21.400Z,5.70
2023-04-29T11:04:21.340Z,5.40
2023-04-29T11:05:21.310Z,5.80
2023-04-29T11:06:21.294Z,5.90
2023-04-29T11:07:22.266Z,5.50
2023-04-29T11:08:21.248Z,6.00
2023-04-29T11:09:21.278Z,5.80
2023-04-29T11:10:21.239Z,5.40
2023-04-29T11:11:21.250Z,6.10
2023-04-29T11:12:22.613Z,5.80
2023-04-29T11:13:21.218Z,5.80
2023-04-29T11:14:21.214Z,6.50
2023-04-29T11:15:21.200Z,6.20
2023-04-29T11:16:21.217Z,6.20
2023-04-29T11:17:21.447Z,6.30
2023-04-29T11:18:21.180Z,6.60
2023-04-29T11:19:21.224Z,6.80
2023-04-29T11:20:21.310Z,6.70
2023-04-29T11:21:21.159Z,6.20
2023-04-29T11:22:21.206Z,6.30
2023-04-29T11:23:21.164Z,6.80
2023-04-29T11:24:21.157Z,6.50
2023-04-29T11:25:21.138Z,7.80
2023-04-29T11:26:21.137Z,7.60
2023-04-29T11:27:21.111Z,6.90
2023-04-29T11:28:21.142Z,6.70
2023-04-29T11:29:21.098Z,6.20
2023-04-29T11:30:21.132Z,6.10
2023-04-29T11:31:21.239Z,6.00
2023-04-29T11:32:21.127Z,5.70
2023-04-29T11:33:21.157Z,6.20
2023-04-29T11:34:21.055Z,5.80
2023-04-29T11:35:21.062Z,5.60
2023-04-29T11:36:21.056Z,5.70
2023-04-29T11:37:21.035Z,5.50
2023-04-29T11:38:21.050Z,5.30
2023-04-29T11:39:21.262Z,5.80
2023-04-29T11:40:21.574Z,5.90
2023-04-29T11:41:21.003Z,6.00
2023-04-29T11:42:21.039Z,6.00
2023-04-29T11:43:20.985Z,6.60
2023-04-29T11:44:20.973Z,6.10
2023-04-29T11:45:20.988Z,6.10
2023-04-29T11:46:21.029Z,5.70
2023-04-29T11:47:20.979Z,6.40
2023-04-29T11:48:20.960Z,6.50
2023-04-29T11:49:20.926Z,6.70
2023-04-29T11:50:21.073Z,6.50
2023-04-29T11:51:20.931Z,6.20
2023-04-29T11:52:20.900Z,6.50
2023-04-29T11:53:20.930Z,7.10
2023-04-29T11:54:20.929Z,6.80
2023-04-29T11:55:20.952Z,6.90
2023-04-29T11:56:20.888Z,6.80
2023-04-29T11:57:20.904Z,6.80
2023-04-29T11:58:20.909Z,7.30
2023-04-29T11:59:20.873Z,8.00
2023-04-29T12:00:20.867Z,7.60
2023-04-29T12:01:20.887Z,7.40
2023-04-29T12:02:21.681Z,8.00
2023-04-29T12:03:21.050Z,7.90
2023-04-29T12:04:21.094Z,8.30
2023-04-29T12:05:21.014Z,8.20
2023-04-29T12:06:20.813Z,8.30
2023-04-29T12:07:20.830Z,8.90
2023-04-29T12:08:20.782Z,8.70
2023-04-29T12:09:20.781Z,8.90
2023-04-29T12:10:20.808Z,8.50
2023-04-29T12:11:20.773Z,9.20
2023-04-29T12:12:20.779Z,9.10
2023-04-29T12:13:20.764Z,9.70
2023-04-29T12:14:20.780Z,11.40
2023-04-29T12:15:20.740Z,12.20
2023-04-29T12:16:20.746Z,11.10
2023-04-29T12:17:20.708Z,11.00
2023-04-29T12:18:20.718Z,10.80
2023-04-29T12:19:20.709Z,10.50
2023-04-29T12:20:20.988Z,10.90
2023-04-29T12:21:20.762Z,10.00
2023-04-29T12:22:20.676Z,11.20
2023-04-29T12:23:20.661Z,10.60
2023-04-29T12:24:20.666Z,10.10
2023-04-29T12:25:20.678Z,10.30
2023-04-29T12:26:20.809Z,9.20
2023-04-29T12:27:20.659Z,9.70
2023-04-29T12:28:20.629Z,9.20
2023-04-29T12:29:20.637Z,9.50
2023-04-29T12:30:20.629Z,9.70
2023-04-29T12:31:21.413Z,10.00
2023-04-29T12:32:20.630Z,10.10
2023-04-29T12:33:21.620Z,9.50
2023-04-29T12:34:21.117Z,8.70
2023-04-29T12:35:20.589Z,9.30
2023-04-29T12:36:20.561Z,9.10
2023-04-29T12:37:20.566Z,9.40
2023-04-29T12:38:20.605Z,9.60
2023-04-29T12:39:20.579Z,9.80
2023-04-29T12:40:20.874Z,9.70
2023-04-29T12:41:20.546Z,9.70
2023-04-29T12:42:20.555Z,10.30
2023-04-29T12:43:20.545Z,9.40
2023-04-29T12:44:20.587Z,9.60
2023-04-29T12:45:20.516Z,9.30
2023-04-29T12:46:20.520Z,10.50
2023-04-29T12:47:20.518Z,10.00
2023-04-29T12:48:29.886Z,9.20
2023-04-29T12:49:22.524Z,9.20
2023-04-29T12:50:20.455Z,9.70
2023-04-29T12:51:20.471Z,9.60
2023-04-29T12:52:20.456Z,9.50
2023-04-29T12:53:20.427Z,9.70
2023-04-29T12:54:20.441Z,9.30
2023-04-29T12:55:20.420Z,9.60
2023-04-29T12:56:20.398Z,9.80
2023-04-29T12:57:20.406Z,9.70
2023-04-29T12:58:20.405Z,9.80
2023-04-29T12:59:20.425Z,9.90
2023-04-29T13:00:20.353Z,9.80
2023-04-29T13:01:21.457Z,9.70
2023-04-29T13:02:21.020Z,9.90
2023-04-29T13:03:22.265Z,9.70
2023-04-29T13:04:21.552Z,9.30
2023-04-29T13:05:20.333Z,10.00
2023-04-29T13:06:20.394Z,9.40
2023-04-29T13:07:20.330Z,10.40
2023-04-29T13:08:20.342Z,10.40
2023-04-29T13:09:20.309Z,11.00
2023-04-29T13:10:20.294Z,10.60
2023-04-29T13:11:20.314Z,10.50
2023-04-29T13:12:20.301Z,10.50
2023-04-29T13:13:20.273Z,10.40
2023-04-29T13:14:20.301Z,9.80
2023-04-29T13:15:21.276Z,9.70
2023-04-29T13:16:20.346Z,9.30
2023-04-29T13:17:20.268Z,8.40
2023-04-29T13:18:20.282Z,9.70
2023-04-29T13:19:36.388Z,8.90